Shinseimaru — JI3713 — position and weather

sailwx.info

Track history (hours):
 
Tides and Currents Weather Stations Pressure Air Temp Water Temp Dewpoint Dewpoint Depression Visibility Wind Speed Wind Dir Waves Ship Positions

Shinseimaru

Last reported at 2017-Sep-24 09:06 UTC. Time now 2017-Sep-25 13:41 UTC.
Position N 34°36' E 135°05'.

Length 84 m.

Type: Ship. MMSI: 431301705.

Date/timePositionNaut miles runAvg speedWind from/ knotsBaromVisibWave heightAir tempDewpointWater temp
2017-Sep-24 09:06N 34°36' E 135°05'310.7
2017-Sep-24 08:51N 34°36' E 135°08'412.0
2017-Sep-24 08:30N 34°36' E 135°13'611.9
2017-Sep-24 08:00N 34°37' E 135°20'610.9
2017-Sep-24 07:29N 34°35' E 135°27'1 0.1
2017-Sep-23 23:25N 34°35' E 135°26'4 9.4
2017-Sep-23 23:00N 34°36' E 135°21'610.6
2017-Sep-23 22:28N 34°35' E 135°14'511.5
2017-Sep-23 22:00N 34°34' E 135°08'16 0.3
2017-Sep-21 23:45N 34°34' E 135°27'2 7.0
2017-Sep-21 23:29N 34°36' E 135°25'5 9.9
2017-Sep-21 22:59N 34°35' E 135°19'510.4
2017-Sep-21 22:30N 34°35' E 135°13'711.6
2017-Sep-21 21:55N 34°35' E 135°05'  
2017-Sep-19 16:36N 34°36' E 135°05'210.1
2017-Sep-19 16:24N 34°36' E 135°07'511.4
2017-Sep-19 16:00N 34°37' E 135°13'611.8
2017-Sep-19 15:30N 34°37' E 135°20'4 0.5
2017-Sep-19 06:20N 34°36' E 135°25'410.1
2017-Sep-19 05:58N 34°36' E 135°21'511.0
2017-Sep-19 05:30N 34°35' E 135°15'611.8
2017-Sep-19 04:59N 34°34' E 135°07'  
2017-Sep-16 10:48N 34°36' E 135°08'412.5
2017-Sep-16 10:30N 34°36' E 135°13'612.5
2017-Sep-16 09:59N 34°37' E 135°21'4 0.5
2017-Sep-16 02:20N 34°36' E 135°25'3 9.9
2017-Sep-16 02:00N 34°36' E 135°21'510.1
2017-Sep-16 01:30N 34°35' E 135°15'510.3
2017-Sep-16 01:00N 34°35' E 135°09'4 0.1
2017-Sep-14 10:51N 34°36' E 135°04'412.1
2017-Sep-14 10:30N 34°36' E 135°09'612.6
2017-Sep-14 09:59N 34°36' E 135°17'612.0
2017-Sep-14 09:30N 34°36' E 135°24'  
Track history (hours):
 
Tides and Currents Weather Stations Pressure Air Temp Water Temp Dewpoint Dewpoint Depression Visibility Wind Speed Wind Dir Waves Ship Positions

Shinseimaru

Last reported at 2017-Sep-24 09:06 UTC. Time now 2017-Sep-25 13:41 UTC.
Position N 34°36' E 135°05'.

Length 84 m.

Type: Ship. MMSI: 431301705.

Date/timePositionNaut miles runAvg speedWind from/ knotsBaromVisibWave heightAir tempDewpointWater temp
2017-Sep-24 09:06N 34°36' E 135°05'310.7
2017-Sep-24 08:51N 34°36' E 135°08'412.0
2017-Sep-24 08:30N 34°36' E 135°13'611.9
2017-Sep-24 08:00N 34°37' E 135°20'610.9
2017-Sep-24 07:29N 34°35' E 135°27'1 0.1
2017-Sep-23 23:25N 34°35' E 135°26'4 9.4
2017-Sep-23 23:00N 34°36' E 135°21'610.6
2017-Sep-23 22:28N 34°35' E 135°14'511.5
2017-Sep-23 22:00N 34°34' E 135°08'16 0.3
2017-Sep-21 23:45N 34°34' E 135°27'2 7.0
2017-Sep-21 23:29N 34°36' E 135°25'5 9.9
2017-Sep-21 22:59N 34°35' E 135°19'510.4
2017-Sep-21 22:30N 34°35' E 135°13'711.6
2017-Sep-21 21:55N 34°35' E 135°05'  
2017-Sep-19 16:36N 34°36' E 135°05'210.1
2017-Sep-19 16:24N 34°36' E 135°07'511.4
2017-Sep-19 16:00N 34°37' E 135°13'611.8
2017-Sep-19 15:30N 34°37' E 135°20'4 0.5
2017-Sep-19 06:20N 34°36' E 135°25'410.1
2017-Sep-19 05:58N 34°36' E 135°21'511.0
2017-Sep-19 05:30N 34°35' E 135°15'611.8
2017-Sep-19 04:59N 34°34' E 135°07'  
2017-Sep-16 10:48N 34°36' E 135°08'412.5
2017-Sep-16 10:30N 34°36' E 135°13'612.5
2017-Sep-16 09:59N 34°37' E 135°21'4 0.5
2017-Sep-16 02:20N 34°36' E 135°25'3 9.9
2017-Sep-16 02:00N 34°36' E 135°21'510.1
2017-Sep-16 01:30N 34°35' E 135°15'510.3
2017-Sep-16 01:00N 34°35' E 135°09'4 0.1
2017-Sep-14 10:51N 34°36' E 135°04'412.1
2017-Sep-14 10:30N 34°36' E 135°09'612.6
2017-Sep-14 09:59N 34°36' E 135°17'612.0
2017-Sep-14 09:30N 34°36' E 135°24'  

Dump ship's entire track history